createdAt,value
2023-05-15T00:01:01.085Z,13.40
2023-05-15T00:03:29.344Z,13.40
2023-05-15T00:05:57.807Z,13.40
2023-05-15T00:08:27.356Z,13.40
2023-05-15T00:11:01.379Z,13.40
2023-05-15T00:13:31.775Z,13.40
2023-05-15T00:15:59.999Z,13.40
2023-05-15T00:18:28.179Z,13.40
2023-05-15T00:20:56.292Z,13.40
2023-05-15T00:23:24.392Z,13.40
2023-05-15T00:25:53.956Z,13.50
2023-05-15T00:28:22.097Z,13.50
2023-05-15T00:30:50.204Z,13.50
2023-05-15T00:33:18.286Z,13.40
2023-05-15T00:35:46.576Z,13.40
2023-05-15T00:38:14.653Z,13.30
2023-05-15T00:40:44.461Z,13.40
2023-05-15T00:43:15.516Z,13.30
2023-05-15T00:45:44.549Z,13.30
2023-05-15T00:48:13.348Z,13.30
2023-05-15T00:50:42.588Z,13.30
2023-05-15T00:53:10.916Z,13.30
2023-05-15T00:55:40.530Z,13.30
2023-05-15T00:58:11.368Z,13.30
2023-05-15T01:00:43.144Z,13.30
2023-05-15T01:03:11.399Z,13.20
2023-05-15T01:05:39.767Z,13.20
2023-05-15T01:08:20.092Z,13.20
2023-05-15T01:10:49.935Z,13.10
2023-05-15T01:13:20.750Z,13.10
2023-05-15T01:15:50.486Z,13.00
2023-05-15T01:18:18.756Z,13.00
2023-05-15T01:21:02.848Z,12.90
2023-05-15T01:23:46.749Z,12.90
2023-05-15T01:26:39.791Z,12.80
2023-05-15T01:29:15.758Z,12.70
2023-05-15T01:31:49.041Z,12.70
2023-05-15T01:34:18.972Z,12.60
2023-05-15T01:36:50.341Z,12.60
2023-05-15T01:39:23.135Z,12.50
2023-05-15T01:41:55.891Z,12.50
2023-05-15T01:44:29.500Z,12.50
2023-05-15T01:47:01.077Z,12.50
2023-05-15T01:49:31.979Z,12.50
2023-05-15T01:52:04.573Z,12.50
2023-05-15T01:54:33.133Z,12.40
2023-05-15T01:57:02.393Z,12.30
2023-05-15T01:59:33.628Z,12.30
2023-05-15T02:02:03.593Z,12.30
2023-05-15T02:04:32.137Z,12.30
2023-05-15T02:07:02.321Z,12.20
2023-05-15T02:09:30.886Z,12.20
2023-05-15T02:11:59.698Z,12.20
2023-05-15T02:14:29.384Z,12.20
2023-05-15T02:16:58.976Z,12.20
2023-05-15T02:19:27.202Z,12.20
2023-05-15T02:21:55.268Z,12.20
2023-05-15T02:24:23.399Z,12.10
2023-05-15T02:26:57.972Z,12.10
2023-05-15T02:29:38.109Z,12.10
2023-05-15T02:32:16.148Z,12.10
2023-05-15T02:34:53.531Z,12.10
2023-05-15T02:37:29.040Z,12.10
2023-05-15T02:39:59.786Z,12.10
2023-05-15T02:42:29.266Z,12.10
2023-05-15T02:44:58.711Z,12.10
2023-05-15T02:47:28.886Z,12.10
2023-05-15T02:49:57.989Z,12.10
2023-05-15T02:52:26.574Z,12.10
2023-05-15T02:54:54.717Z,12.00
2023-05-15T02:57:22.988Z,12.00
2023-05-15T02:59:51.202Z,12.00
2023-05-15T03:02:19.356Z,12.00
2023-05-15T03:04:48.821Z,12.00
2023-05-15T03:07:16.996Z,12.00
2023-05-15T03:09:45.197Z,11.90
2023-05-15T03:12:13.295Z,11.90
2023-05-15T03:14:41.382Z,11.90
2023-05-15T03:17:09.622Z,11.80
2023-05-15T03:19:37.806Z,11.70
2023-05-15T03:22:07.432Z,11.70
2023-05-15T03:24:37.319Z,11.70
2023-05-15T03:27:06.199Z,11.60
2023-05-15T03:29:34.280Z,11.60
2023-05-15T03:32:02.375Z,11.60
2023-05-15T03:34:30.562Z,11.50
2023-05-15T03:36:58.657Z,11.40
2023-05-15T03:39:28.199Z,11.40
2023-05-15T03:41:56.462Z,11.30
2023-05-15T03:44:24.653Z,11.30
2023-05-15T03:46:52.847Z,11.10
2023-05-15T03:49:20.965Z,11.10
2023-05-15T03:51:49.145Z,11.10
2023-05-15T03:54:17.327Z,11.00
2023-05-15T03:56:46.890Z,10.90
2023-05-15T03:59:14.973Z,10.90
2023-05-15T04:01:59.409Z,10.80
2023-05-15T04:04:31.448Z,10.80
2023-05-15T04:06:59.585Z,10.90
2023-05-15T04:09:27.754Z,10.90
2023-05-15T04:11:57.244Z,10.90
2023-05-15T04:14:25.353Z,11.00
2023-05-15T04:16:53.562Z,11.10
2023-05-15T04:19:21.786Z,11.10
2023-05-15T04:21:49.896Z,11.20
2023-05-15T04:24:17.976Z,11.30
2023-05-15T04:26:46.153Z,11.30
2023-05-15T04:29:15.697Z,11.40
2023-05-15T04:31:44.038Z,11.40
2023-05-15T04:34:12.182Z,11.40
2023-05-15T04:36:42.819Z,11.40
2023-05-15T04:39:11.230Z,11.40
2023-05-15T04:41:39.332Z,11.40
2023-05-15T04:44:08.636Z,11.40
2023-05-15T04:46:38.268Z,11.40
2023-05-15T04:49:06.664Z,11.40
2023-05-15T04:51:35.005Z,11.40
2023-05-15T04:54:03.390Z,11.50
2023-05-15T04:56:31.577Z,11.50
2023-05-15T04:58:59.775Z,11.60
2023-05-15T05:01:27.972Z,11.60
2023-05-15T05:03:57.747Z,11.70
2023-05-15T05:06:26.550Z,11.70
2023-05-15T05:08:55.386Z,11.70
2023-05-15T05:11:23.900Z,11.80
2023-05-15T05:13:52.423Z,11.80
2023-05-15T05:16:20.593Z,11.90
2023-05-15T05:18:48.793Z,11.90
2023-05-15T05:21:18.576Z,12.00
2023-05-15T05:23:47.413Z,12.00
2023-05-15T05:26:15.505Z,12.10
2023-05-15T05:28:43.599Z,12.10
2023-05-15T05:31:11.759Z,12.10
2023-05-15T05:33:40.003Z,12.10
2023-05-15T05:36:08.809Z,12.20
2023-05-15T05:38:38.665Z,12.20
2023-05-15T05:41:06.795Z,12.30
2023-05-15T05:43:34.920Z,12.30
2023-05-15T05:46:03.213Z,12.40
2023-05-15T05:48:31.394Z,12.50
2023-05-15T05:50:59.600Z,12.60
2023-05-15T05:53:27.750Z,12.60
2023-05-15T05:55:57.504Z,12.80
2023-05-15T05:58:26.400Z,12.90
2023-05-15T06:00:55.033Z,13.00
2023-05-15T06:03:24.140Z,13.10
2023-05-15T06:05:52.908Z,13.30
2023-05-15T06:08:21.102Z,13.40
2023-05-15T06:10:49.454Z,13.50
2023-05-15T06:13:19.189Z,13.60
2023-05-15T06:15:48.307Z,13.80
2023-05-15T06:18:16.429Z,13.90
2023-05-15T06:20:44.539Z,14.00
2023-05-15T06:23:12.652Z,14.10
2023-05-15T06:25:40.812Z,14.20
2023-05-15T06:28:08.931Z,14.40
2023-05-15T06:30:38.448Z,14.50
2023-05-15T06:33:06.624Z,14.60
2023-05-15T06:35:34.805Z,14.70
2023-05-15T06:38:03.084Z,14.80
2023-05-15T06:40:31.453Z,14.80
2023-05-15T06:42:59.848Z,14.90
2023-05-15T06:45:28.454Z,14.90
2023-05-15T06:48:01.615Z,15.00
2023-05-15T06:50:29.920Z,15.00
2023-05-15T06:52:58.021Z,15.10
2023-05-15T06:55:26.259Z,15.20
2023-05-15T06:57:54.679Z,15.30
2023-05-15T07:00:23.196Z,15.40
2023-05-15T07:02:51.321Z,15.50
2023-05-15T07:05:21.861Z,15.60
2023-05-15T07:07:50.085Z,15.70
2023-05-15T07:10:18.377Z,15.90
2023-05-15T07:12:46.480Z,16.00
2023-05-15T07:15:14.525Z,16.10
2023-05-15T07:17:42.744Z,16.20
2023-05-15T07:20:11.599Z,16.30
2023-05-15T07:22:51.929Z,16.40
2023-05-15T07:25:23.868Z,16.50
2023-05-15T07:27:52.413Z,16.70
2023-05-15T07:30:20.666Z,16.80
2023-05-15T07:32:48.825Z,17.00
2023-05-15T07:35:17.255Z,17.10
2023-05-15T07:37:47.528Z,17.30
2023-05-15T07:40:16.553Z,17.40
2023-05-15T07:42:45.842Z,17.50
2023-05-15T07:45:14.095Z,17.70
2023-05-15T07:47:43.959Z,17.80
2023-05-15T07:50:12.494Z,17.90
2023-05-15T07:52:40.661Z,18.10
2023-05-15T07:55:10.988Z,18.20
2023-05-15T07:57:39.848Z,18.40
2023-05-15T08:00:13.172Z,18.50
2023-05-15T08:02:41.411Z,18.70
2023-05-15T08:05:10.031Z,18.80
2023-05-15T08:07:38.312Z,19.00
2023-05-15T08:10:07.649Z,19.10
2023-05-15T08:12:37.196Z,19.20
2023-05-15T08:15:06.534Z,19.40
2023-05-15T08:17:34.647Z,19.60
2023-05-15T08:20:02.834Z,19.80
2023-05-15T08:22:31.262Z,20.00
2023-05-15T08:25:00.232Z,20.20
2023-05-15T08:27:28.502Z,20.50
2023-05-15T08:29:57.979Z,20.70
2023-05-15T08:32:26.775Z,20.90
2023-05-15T08:34:55.054Z,21.10
2023-05-15T08:37:23.203Z,21.30
2023-05-15T08:39:51.376Z,21.50
2023-05-15T08:42:25.078Z,21.70
2023-05-15T08:44:53.490Z,21.80
2023-05-15T08:47:23.689Z,21.90
2023-05-15T08:50:00.632Z,22.00
2023-05-15T08:52:29.873Z,22.10
2023-05-15T08:54:59.464Z,22.20
2023-05-15T08:57:28.080Z,22.30
2023-05-15T08:59:57.727Z,22.50
2023-05-15T09:02:27.557Z,22.70
2023-05-15T09:04:55.703Z,22.90
2023-05-15T09:07:24.696Z,23.00
2023-05-15T09:09:53.280Z,23.20
2023-05-15T09:12:23.429Z,23.30
2023-05-15T09:14:51.535Z,23.60
2023-05-15T09:17:19.671Z,23.70
2023-05-15T09:19:49.419Z,24.00
2023-05-15T09:22:23.235Z,24.10
2023-05-15T09:24:53.961Z,24.40
2023-05-15T09:27:22.084Z,24.60
2023-05-15T09:29:51.757Z,24.80
2023-05-15T09:32:20.104Z,25.00
2023-05-15T09:34:49.701Z,25.20
2023-05-15T09:37:30.211Z,25.50
2023-05-15T09:40:10.822Z,25.70
2023-05-15T09:42:39.324Z,25.90
2023-05-15T09:45:17.849Z,26.10
2023-05-15T09:47:47.232Z,26.20
2023-05-15T09:50:23.672Z,26.40
2023-05-15T09:52:52.773Z,26.60
2023-05-15T09:55:22.885Z,26.70
2023-05-15T09:58:08.043Z,26.80
2023-05-15T10:00:48.502Z,27.00
2023-05-15T10:03:19.448Z,27.30
2023-05-15T10:05:49.154Z,27.40
2023-05-15T10:08:26.944Z,27.40
2023-05-15T10:10:55.560Z,27.20
2023-05-15T10:13:24.554Z,27.00
2023-05-15T10:15:53.972Z,26.70
2023-05-15T10:18:25.025Z,26.50
2023-05-15T10:20:54.584Z,26.20
2023-05-15T10:23:24.650Z,25.90
2023-05-15T10:25:59.636Z,25.60
2023-05-15T10:28:29.610Z,25.40
2023-05-15T10:31:02.936Z,25.10
2023-05-15T10:33:31.221Z,24.70
2023-05-15T10:36:01.283Z,24.50
2023-05-15T10:38:31.622Z,24.20
2023-05-15T10:41:15.864Z,24.00
2023-05-15T10:43:45.833Z,23.70
2023-05-15T10:46:16.036Z,23.50
2023-05-15T10:48:44.567Z,23.30
2023-05-15T10:51:19.218Z,23.10
2023-05-15T10:53:47.811Z,22.90
2023-05-15T10:56:17.164Z,22.70
2023-05-15T10:58:49.275Z,22.60
2023-05-15T11:01:28.009Z,22.50
2023-05-15T11:04:10.467Z,22.40
2023-05-15T11:06:41.355Z,22.20
2023-05-15T11:09:36.048Z,22.20
2023-05-15T11:12:05.902Z,22.10
2023-05-15T11:14:36.666Z,22.00
2023-05-15T11:17:06.797Z,22.00
2023-05-15T11:19:40.522Z,22.00
2023-05-15T11:22:21.004Z,22.00
2023-05-15T11:24:53.696Z,22.00
2023-05-15T11:27:23.658Z,22.00
2023-05-15T11:30:13.338Z,22.10
2023-05-15T11:32:43.147Z,22.10
2023-05-15T11:35:12.525Z,22.20
2023-05-15T11:37:46.722Z,22.30
2023-05-15T11:40:16.094Z,22.30
2023-05-15T11:42:59.247Z,22.30
2023-05-15T11:45:27.853Z,22.30
2023-05-15T11:47:56.220Z,22.40
2023-05-15T11:50:25.288Z,22.50
2023-05-15T11:52:55.626Z,22.60
2023-05-15T11:55:24.264Z,22.70
2023-05-15T11:57:52.353Z,22.90
2023-05-15T12:00:20.699Z,23.20
2023-05-15T12:02:49.115Z,23.60
2023-05-15T12:05:17.257Z,23.90
2023-05-15T12:07:46.600Z,24.20
2023-05-15T12:10:16.540Z,24.40
2023-05-15T12:12:46.132Z,24.50
2023-05-15T12:15:15.827Z,24.50
2023-05-15T12:17:46.506Z,24.50
2023-05-15T12:20:19.642Z,24.50
2023-05-15T12:22:47.725Z,24.40
2023-05-15T12:25:17.748Z,24.40
2023-05-15T12:27:46.014Z,24.40
2023-05-15T12:30:15.672Z,24.50
2023-05-15T12:32:44.715Z,24.60
2023-05-15T12:35:13.038Z,24.70
2023-05-15T12:37:43.326Z,24.90
2023-05-15T12:40:12.385Z,25.10
2023-05-15T12:42:45.794Z,25.30
2023-05-15T12:45:15.696Z,25.60
2023-05-15T12:47:44.481Z,25.80
2023-05-15T12:50:16.974Z,26.00
2023-05-15T12:52:52.419Z,26.10
2023-05-15T12:55:24.808Z,26.20
2023-05-15T12:57:54.916Z,26.30
2023-05-15T13:00:25.710Z,26.40
2023-05-15T13:02:56.108Z,26.50
2023-05-15T13:05:24.514Z,26.50
2023-05-15T13:07:53.024Z,26.50
2023-05-15T13:10:24.006Z,26.60
2023-05-15T13:12:54.733Z,26.60
2023-05-15T13:15:31.613Z,26.80
2023-05-15T13:18:04.417Z,26.90
2023-05-15T13:20:36.038Z,27.10
2023-05-15T13:23:04.509Z,27.20
2023-05-15T13:25:32.926Z,27.30
2023-05-15T13:28:04.425Z,27.30
2023-05-15T13:30:34.622Z,27.20
2023-05-15T13:33:04.885Z,27.20
2023-05-15T13:35:32.994Z,27.10
2023-05-15T13:38:01.516Z,27.10
2023-05-15T13:40:31.108Z,27.00
2023-05-15T13:42:59.249Z,26.90
2023-05-15T13:45:28.818Z,26.90
2023-05-15T13:47:57.201Z,26.80
2023-05-15T13:50:25.666Z,26.70
2023-05-15T13:52:54.484Z,26.50
2023-05-15T13:55:23.326Z,26.40
2023-05-15T13:57:52.147Z,26.20
2023-05-15T14:00:21.846Z,26.00
2023-05-15T14:02:51.458Z,25.80
2023-05-15T14:05:19.653Z,25.60
2023-05-15T14:07:47.744Z,25.40
2023-05-15T14:10:15.835Z,25.20
2023-05-15T14:12:44.293Z,25.00
2023-05-15T14:15:13.020Z,24.80
2023-05-15T14:17:41.752Z,24.70
2023-05-15T14:20:13.005Z,24.60
2023-05-15T14:22:42.054Z,24.50
2023-05-15T14:25:10.820Z,24.40
2023-05-15T14:27:39.013Z,24.40
2023-05-15T14:30:08.415Z,24.30
2023-05-15T14:32:36.540Z,24.30
2023-05-15T14:35:05.221Z,24.30
2023-05-15T14:37:34.720Z,24.20
2023-05-15T14:40:03.008Z,24.20
2023-05-15T14:42:31.192Z,24.10
2023-05-15T14:44:59.329Z,24.20
2023-05-15T14:47:29.985Z,24.10
2023-05-15T14:49:58.192Z,24.10
2023-05-15T14:52:27.033Z,24.10
2023-05-15T14:55:08.040Z,24.10
2023-05-15T14:57:37.684Z,24.10
2023-05-15T15:00:07.391Z,24.00
2023-05-15T15:02:35.818Z,23.90
2023-05-15T15:05:04.775Z,23.80
2023-05-15T15:07:53.026Z,23.80
2023-05-15T15:10:22.485Z,23.70
2023-05-15T15:12:52.939Z,23.60
2023-05-15T15:15:21.487Z,23.60
2023-05-15T15:17:49.653Z,23.50
2023-05-15T15:20:19.101Z,23.40
2023-05-15T15:22:47.511Z,23.30
2023-05-15T15:25:15.965Z,23.30
2023-05-15T15:27:46.262Z,23.20
2023-05-15T15:30:14.682Z,23.20
2023-05-15T15:32:44.541Z,23.10
2023-05-15T15:35:12.971Z,23.00
2023-05-15T15:37:41.080Z,22.90
2023-05-15T15:40:11.191Z,22.80
2023-05-15T15:42:39.331Z,22.70
2023-05-15T15:45:09.689Z,22.60
2023-05-15T15:47:37.954Z,22.50
2023-05-15T15:50:07.058Z,22.40
2023-05-15T15:52:35.213Z,22.30
2023-05-15T15:55:03.528Z,22.20
2023-05-15T15:57:31.858Z,22.20
2023-05-15T16:00:00.072Z,22.00
2023-05-15T16:02:29.740Z,22.00
2023-05-15T16:04:57.889Z,21.90
2023-05-15T16:07:26.052Z,21.90
2023-05-15T16:10:10.087Z,21.80
2023-05-15T16:12:42.436Z,21.80
2023-05-15T16:15:22.311Z,21.80
2023-05-15T16:17:57.396Z,21.70
2023-05-15T16:20:26.366Z,21.60
2023-05-15T16:22:55.297Z,21.60
2023-05-15T16:25:23.648Z,21.60
2023-05-15T16:27:51.758Z,21.50
2023-05-15T16:30:20.038Z,21.50
2023-05-15T16:32:48.601Z,21.40
2023-05-15T16:35:20.574Z,21.40
2023-05-15T16:37:48.707Z,21.30
2023-05-15T16:40:17.011Z,21.30
2023-05-15T16:42:45.094Z,21.30
2023-05-15T16:45:13.176Z,21.20
2023-05-15T16:47:41.444Z,21.20
2023-05-15T16:50:10.313Z,21.20
2023-05-15T16:52:45.370Z,21.10
2023-05-15T16:55:16.333Z,21.10
2023-05-15T16:57:45.292Z,21.10
2023-05-15T17:00:15.173Z,21.10
2023-05-15T17:02:43.754Z,21.10
2023-05-15T17:05:13.954Z,21.10
2023-05-15T17:07:44.496Z,21.10
2023-05-15T17:10:13.929Z,21.10
2023-05-15T17:12:42.454Z,21.10
2023-05-15T17:15:11.090Z,21.10
2023-05-15T17:17:39.246Z,21.10
2023-05-15T17:20:08.440Z,21.10
2023-05-15T17:22:36.664Z,21.10
2023-05-15T17:25:07.112Z,21.10
2023-05-15T17:27:39.703Z,21.00
2023-05-15T17:30:09.084Z,21.00
2023-05-15T17:32:37.282Z,21.00
2023-05-15T17:35:06.212Z,21.00
2023-05-15T17:37:34.299Z,21.00
2023-05-15T17:40:02.679Z,20.90
2023-05-15T17:42:32.129Z,20.90
2023-05-15T17:45:00.408Z,20.90
2023-05-15T17:47:28.699Z,20.90
2023-05-15T17:49:56.992Z,20.80
2023-05-15T17:52:25.053Z,20.80
2023-05-15T17:54:53.190Z,20.80
2023-05-15T17:57:21.270Z,20.80
2023-05-15T17:59:50.766Z,20.70
2023-05-15T18:02:18.855Z,20.70
2023-05-15T18:04:46.975Z,20.70
2023-05-15T18:07:15.137Z,20.70
2023-05-15T18:09:43.196Z,20.70
2023-05-15T18:12:14.342Z,20.70
2023-05-15T18:14:42.522Z,20.60
2023-05-15T18:17:11.950Z,20.60
2023-05-15T18:19:40.057Z,20.60
2023-05-15T18:22:08.185Z,20.60
2023-05-15T18:24:36.270Z,20.60
2023-05-15T18:27:04.515Z,20.50
2023-05-15T18:29:32.576Z,20.40
2023-05-15T18:32:00.783Z,20.40
2023-05-15T18:34:30.336Z,20.30
2023-05-15T18:36:58.421Z,20.20
2023-05-15T18:39:26.783Z,20.10
2023-05-15T18:41:55.296Z,20.10
2023-05-15T18:44:23.453Z,20.10
2023-05-15T18:46:51.776Z,20.00
2023-05-15T18:49:19.836Z,20.00
2023-05-15T18:51:49.280Z,20.00
2023-05-15T18:54:17.526Z,19.90
2023-05-15T18:56:45.623Z,19.90
2023-05-15T18:59:14.027Z,19.80
2023-05-15T19:01:42.150Z,19.80
2023-05-15T19:04:10.388Z,19.70
2023-05-15T19:06:40.814Z,19.70
2023-05-15T19:09:10.652Z,19.60
2023-05-15T19:11:38.838Z,19.60
2023-05-15T19:14:07.242Z,19.50
2023-05-15T19:16:35.388Z,19.40
2023-05-15T19:19:03.627Z,19.30
2023-05-15T19:21:32.413Z,19.20
2023-05-15T19:24:00.562Z,19.10
2023-05-15T19:26:30.402Z,19.10
2023-05-15T19:28:58.706Z,19.00
2023-05-15T19:31:31.316Z,18.90
2023-05-15T19:34:00.629Z,18.90
2023-05-15T19:36:28.811Z,18.90
2023-05-15T19:38:57.187Z,18.90
2023-05-15T19:41:25.337Z,18.90
2023-05-15T19:43:54.966Z,18.90
2023-05-15T19:46:23.665Z,18.90
2023-05-15T19:48:51.863Z,18.90
2023-05-15T19:51:20.361Z,19.00
2023-05-15T19:53:48.554Z,19.00
2023-05-15T19:56:17.641Z,19.00
2023-05-15T19:58:45.898Z,19.00
2023-05-15T20:01:15.892Z,19.00
2023-05-15T20:03:44.276Z,19.00
2023-05-15T20:06:14.002Z,19.00
2023-05-15T20:08:42.126Z,19.00
2023-05-15T20:11:10.405Z,18.90
2023-05-15T20:13:39.151Z,18.80
2023-05-15T20:16:10.459Z,18.70
2023-05-15T20:18:42.038Z,18.70
2023-05-15T20:21:10.549Z,18.60
2023-05-15T20:23:39.220Z,18.50
2023-05-15T20:26:07.291Z,18.50
2023-05-15T20:28:35.368Z,18.50
2023-05-15T20:31:03.514Z,18.40
2023-05-15T20:33:31.741Z,18.30
2023-05-15T20:36:02.259Z,18.20
2023-05-15T20:38:30.395Z,18.10
2023-05-15T20:40:58.481Z,18.00
2023-05-15T20:43:26.982Z,17.90
2023-05-15T20:45:55.205Z,17.80
2023-05-15T20:48:23.364Z,17.70
2023-05-15T20:50:53.781Z,17.60
2023-05-15T20:53:23.510Z,17.60
2023-05-15T20:55:51.672Z,17.50
2023-05-15T20:58:21.345Z,17.50
2023-05-15T21:00:49.747Z,17.40
2023-05-15T21:03:17.934Z,17.30
2023-05-15T21:05:46.237Z,17.30
2023-05-15T21:08:14.831Z,17.20
2023-05-15T21:10:45.382Z,17.20
2023-05-15T21:13:14.073Z,17.20
2023-05-15T21:15:42.341Z,17.10
2023-05-15T21:18:12.067Z,17.10
2023-05-15T21:20:41.762Z,17.10
2023-05-15T21:23:09.871Z,17.00
2023-05-15T21:25:38.338Z,17.00
2023-05-15T21:28:11.412Z,16.90
2023-05-15T21:30:39.592Z,16.90
2023-05-15T21:33:08.099Z,16.80
2023-05-15T21:35:36.449Z,16.70
2023-05-15T21:38:05.711Z,16.70
2023-05-15T21:40:34.513Z,16.60
2023-05-15T21:43:03.276Z,16.60
2023-05-15T21:45:33.215Z,16.50
2023-05-15T21:48:02.581Z,16.40
2023-05-15T21:50:31.067Z,16.30
2023-05-15T21:52:59.204Z,16.30
2023-05-15T21:55:27.318Z,16.20
2023-05-15T21:57:55.961Z,16.10
2023-05-15T22:00:24.745Z,16.00
2023-05-15T22:02:54.419Z,15.90
2023-05-15T22:05:22.700Z,15.90
2023-05-15T22:07:50.976Z,15.80
2023-05-15T22:10:19.154Z,15.70
2023-05-15T22:12:47.478Z,15.60
2023-05-15T22:15:16.698Z,15.60
2023-05-15T22:17:44.917Z,15.60
2023-05-15T22:20:15.528Z,15.50
2023-05-15T22:22:44.120Z,15.50
2023-05-15T22:25:12.288Z,15.50
2023-05-15T22:27:40.394Z,15.50
2023-05-15T22:30:09.775Z,15.40
2023-05-15T22:32:37.968Z,15.40
2023-05-15T22:35:06.944Z,15.30
2023-05-15T22:37:36.697Z,15.30
2023-05-15T22:40:07.495Z,15.20
2023-05-15T22:42:35.604Z,15.20
2023-05-15T22:45:03.959Z,15.20
2023-05-15T22:47:32.609Z,15.20
2023-05-15T22:50:00.870Z,15.10
2023-05-15T22:52:29.079Z,15.10
2023-05-15T22:54:58.509Z,15.10
2023-05-15T22:57:26.967Z,15.10
2023-05-15T22:59:55.080Z,15.00
2023-05-15T23:02:23.175Z,15.00
2023-05-15T23:04:51.289Z,14.90
2023-05-15T23:07:19.370Z,14.90
2023-05-15T23:09:47.620Z,14.90
2023-05-15T23:12:17.111Z,14.90
2023-05-15T23:14:45.179Z,14.90
2023-05-15T23:17:13.823Z,14.90
2023-05-15T23:19:42.011Z,14.80
2023-05-15T23:22:10.113Z,14.80
2023-05-15T23:24:38.328Z,14.80
2023-05-15T23:27:06.801Z,14.70
2023-05-15T23:29:36.281Z,14.60
2023-05-15T23:32:04.477Z,14.50
2023-05-15T23:34:32.560Z,14.40
2023-05-15T23:37:00.686Z,14.30
2023-05-15T23:39:28.754Z,14.30
2023-05-15T23:42:00.012Z,14.20
2023-05-15T23:44:28.286Z,14.20
2023-05-15T23:46:57.851Z,14.20
2023-05-15T23:49:26.057Z,14.20
2023-05-15T23:51:54.557Z,14.20
2023-05-15T23:54:22.665Z,14.10
2023-05-15T23:56:50.983Z,14.10
2023-05-15T23:59:19.152Z,14.10
